sensor_id;sensor_type;location;lat;lon;timestamp;P1;durP1;ratioP1;P2;durP2;ratioP2
22652;SDS011;11493;43.344;26.226;2023-12-14T00:01:18;32.97;;;21.60;;
22652;SDS011;11493;43.344;26.226;2023-12-14T00:03:45;31.27;;;19.48;;
22652;SDS011;11493;43.344;26.226;2023-12-14T00:06:13;34.85;;;20.13;;
22652;SDS011;11493;43.344;26.226;2023-12-14T00:08:41;30.33;;;21.60;;
22652;SDS011;11493;43.344;26.226;2023-12-14T00:11:09;31.77;;;21.30;;
22652;SDS011;11493;43.344;26.226;2023-12-14T00:13:37;34.85;;;22.50;;
22652;SDS011;11493;43.344;26.226;2023-12-14T00:16:05;41.55;;;23.25;;
22652;SDS011;11493;43.344;26.226;2023-12-14T00:18:33;35.10;;;23.38;;
22652;SDS011;11493;43.344;26.226;2023-12-14T00:21:00;36.13;;;24.55;;
22652;SDS011;11493;43.344;26.226;2023-12-14T00:23:27;48.67;;;26.85;;
22652;SDS011;11493;43.344;26.226;2023-12-14T00:25:54;47.15;;;29.13;;
22652;SDS011;11493;43.344;26.226;2023-12-14T00:28:22;43.08;;;28.77;;
22652;SDS011;11493;43.344;26.226;2023-12-14T00:30:53;38.00;;;24.50;;
22652;SDS011;11493;43.344;26.226;2023-12-14T00:33:20;38.88;;;23.98;;
22652;SDS011;11493;43.344;26.226;2023-12-14T00:35:47;60.17;;;37.70;;
22652;SDS011;11493;43.344;26.226;2023-12-14T00:38:14;63.47;;;41.10;;
22652;SDS011;11493;43.344;26.226;2023-12-14T00:40:41;59.85;;;36.70;;
22652;SDS011;11493;43.344;26.226;2023-12-14T00:43:09;62.00;;;36.65;;
22652;SDS011;11493;43.344;26.226;2023-12-14T00:45:35;59.83;;;34.45;;
22652;SDS011;11493;43.344;26.226;2023-12-14T00:48:03;45.30;;;27.80;;
22652;SDS011;11493;43.344;26.226;2023-12-14T00:50:30;57.22;;;32.75;;
22652;SDS011;11493;43.344;26.226;2023-12-14T00:52:57;51.88;;;32.75;;
22652;SDS011;11493;43.344;26.226;2023-12-14T00:55:24;27.27;;;18.50;;
22652;SDS011;11493;43.344;26.226;2023-12-14T00:57:51;27.25;;;19.52;;
22652;SDS011;11493;43.344;26.226;2023-12-14T01:00:18;32.95;;;21.95;;
22652;SDS011;11493;43.344;26.226;2023-12-14T01:02:45;38.80;;;22.52;;
22652;SDS011;11493;43.344;26.226;2023-12-14T01:05:13;28.17;;;16.83;;
22652;SDS011;11493;43.344;26.226;2023-12-14T01:07:40;31.23;;;19.33;;
22652;SDS011;11493;43.344;26.226;2023-12-14T01:10:07;30.70;;;21.00;;
22652;SDS011;11493;43.344;26.226;2023-12-14T01:12:35;31.02;;;18.67;;
22652;SDS011;11493;43.344;26.226;2023-12-14T01:15:02;32.38;;;19.20;;
22652;SDS011;11493;43.344;26.226;2023-12-14T01:17:30;53.90;;;25.80;;
22652;SDS011;11493;43.344;26.226;2023-12-14T01:19:57;42.03;;;21.58;;
22652;SDS011;11493;43.344;26.226;2023-12-14T01:22:24;40.45;;;20.38;;
22652;SDS011;11493;43.344;26.226;2023-12-14T01:24:51;26.33;;;17.42;;
22652;SDS011;11493;43.344;26.226;2023-12-14T01:27:18;63.55;;;28.08;;
22652;SDS011;11493;43.344;26.226;2023-12-14T01:29:45;47.63;;;24.65;;
22652;SDS011;11493;43.344;26.226;2023-12-14T01:32:12;30.52;;;19.15;;
22652;SDS011;11493;43.344;26.226;2023-12-14T01:34:39;24.25;;;15.88;;
22652;SDS011;11493;43.344;26.226;2023-12-14T01:37:10;27.55;;;17.13;;
22652;SDS011;11493;43.344;26.226;2023-12-14T01:39:37;27.00;;;15.55;;
22652;SDS011;11493;43.344;26.226;2023-12-14T01:42:04;22.80;;;15.23;;
22652;SDS011;11493;43.344;26.226;2023-12-14T01:44:31;20.67;;;15.02;;
22652;SDS011;11493;43.344;26.226;2023-12-14T01:46:59;24.83;;;15.55;;
22652;SDS011;11493;43.344;26.226;2023-12-14T01:49:26;23.73;;;16.60;;
22652;SDS011;11493;43.344;26.226;2023-12-14T01:51:54;23.15;;;15.88;;
22652;SDS011;11493;43.344;26.226;2023-12-14T01:54:21;31.85;;;19.20;;
22652;SDS011;11493;43.344;26.226;2023-12-14T01:56:49;33.95;;;19.10;;
22652;SDS011;11493;43.344;26.226;2023-12-14T01:59:16;25.15;;;15.60;;
22652;SDS011;11493;43.344;26.226;2023-12-14T02:01:46;22.02;;;15.05;;
22652;SDS011;11493;43.344;26.226;2023-12-14T02:04:14;24.45;;;15.20;;
22652;SDS011;11493;43.344;26.226;2023-12-14T02:06:41;19.90;;;13.32;;
22652;SDS011;11493;43.344;26.226;2023-12-14T02:09:09;21.95;;;14.75;;
22652;SDS011;11493;43.344;26.226;2023-12-14T02:11:36;21.70;;;14.80;;
22652;SDS011;11493;43.344;26.226;2023-12-14T02:14:08;22.00;;;14.80;;
22652;SDS011;11493;43.344;26.226;2023-12-14T02:16:36;25.08;;;17.60;;
22652;SDS011;11493;43.344;26.226;2023-12-14T02:19:08;25.65;;;15.00;;
22652;SDS011;11493;43.344;26.226;2023-12-14T02:21:35;19.75;;;13.75;;
22652;SDS011;11493;43.344;26.226;2023-12-14T02:24:02;21.35;;;13.82;;
22652;SDS011;11493;43.344;26.226;2023-12-14T02:26:29;33.72;;;17.50;;
22652;SDS011;11493;43.344;26.226;2023-12-14T02:28:57;23.48;;;14.65;;
22652;SDS011;11493;43.344;26.226;2023-12-14T02:31:24;19.63;;;13.13;;
22652;SDS011;11493;43.344;26.226;2023-12-14T02:33:51;26.35;;;14.73;;
22652;SDS011;11493;43.344;26.226;2023-12-14T02:36:18;20.52;;;13.68;;
22652;SDS011;11493;43.344;26.226;2023-12-14T02:38:45;20.27;;;12.48;;
22652;SDS011;11493;43.344;26.226;2023-12-14T02:41:12;19.85;;;12.52;;
22652;SDS011;11493;43.344;26.226;2023-12-14T02:43:39;22.15;;;11.98;;
22652;SDS011;11493;43.344;26.226;2023-12-14T02:46:07;18.38;;;12.77;;
22652;SDS011;11493;43.344;26.226;2023-12-14T02:48:35;24.60;;;14.60;;
22652;SDS011;11493;43.344;26.226;2023-12-14T02:51:03;17.35;;;13.43;;
22652;SDS011;11493;43.344;26.226;2023-12-14T02:53:31;20.70;;;13.52;;
22652;SDS011;11493;43.344;26.226;2023-12-14T02:56:01;21.65;;;13.95;;
22652;SDS011;11493;43.344;26.226;2023-12-14T02:58:28;17.33;;;13.32;;
22652;SDS011;11493;43.344;26.226;2023-12-14T03:00:55;18.15;;;12.73;;
22652;SDS011;11493;43.344;26.226;2023-12-14T03:03:22;18.48;;;12.80;;
22652;SDS011;11493;43.344;26.226;2023-12-14T03:05:49;17.10;;;12.05;;
22652;SDS011;11493;43.344;26.226;2023-12-14T03:08:17;18.45;;;12.80;;
22652;SDS011;11493;43.344;26.226;2023-12-14T03:10:44;20.70;;;12.80;;
22652;SDS011;11493;43.344;26.226;2023-12-14T03:13:11;21.92;;;12.55;;
22652;SDS011;11493;43.344;26.226;2023-12-14T03:15:38;22.63;;;14.40;;
22652;SDS011;11493;43.344;26.226;2023-12-14T03:18:05;22.23;;;14.75;;
22652;SDS011;11493;43.344;26.226;2023-12-14T03:20:33;24.85;;;16.05;;
22652;SDS011;11493;43.344;26.226;2023-12-14T03:23:00;20.17;;;14.52;;
22652;SDS011;11493;43.344;26.226;2023-12-14T03:25:27;18.95;;;13.32;;
22652;SDS011;11493;43.344;26.226;2023-12-14T03:27:54;18.73;;;13.73;;
22652;SDS011;11493;43.344;26.226;2023-12-14T03:30:21;16.63;;;13.05;;
22652;SDS011;11493;43.344;26.226;2023-12-14T03:32:48;25.80;;;17.08;;
22652;SDS011;11493;43.344;26.226;2023-12-14T03:35:15;24.20;;;17.48;;
22652;SDS011;11493;43.344;26.226;2023-12-14T03:37:42;23.88;;;17.70;;
22652;SDS011;11493;43.344;26.226;2023-12-14T03:40:10;22.05;;;15.07;;
22652;SDS011;11493;43.344;26.226;2023-12-14T03:42:37;17.45;;;11.82;;
22652;SDS011;11493;43.344;26.226;2023-12-14T03:45:04;15.13;;;11.15;;
22652;SDS011;11493;43.344;26.226;2023-12-14T03:47:32;15.15;;;10.30;;
22652;SDS011;11493;43.344;26.226;2023-12-14T03:49:59;18.10;;;13.73;;
22652;SDS011;11493;43.344;26.226;2023-12-14T03:52:26;19.83;;;14.00;;
22652;SDS011;11493;43.344;26.226;2023-12-14T03:54:54;17.20;;;12.77;;
22652;SDS011;11493;43.344;26.226;2023-12-14T03:57:21;19.27;;;13.98;;
22652;SDS011;11493;43.344;26.226;2023-12-14T03:59:48;22.65;;;15.48;;
22652;SDS011;11493;43.344;26.226;2023-12-14T04:02:15;30.70;;;20.70;;
22652;SDS011;11493;43.344;26.226;2023-12-14T04:04:43;26.73;;;20.30;;
22652;SDS011;11493;43.344;26.226;2023-12-14T04:07:11;26.05;;;19.70;;
22652;SDS011;11493;43.344;26.226;2023-12-14T04:09:38;34.90;;;25.55;;
22652;SDS011;11493;43.344;26.226;2023-12-14T04:12:06;40.88;;;29.00;;
22652;SDS011;11493;43.344;26.226;2023-12-14T04:14:33;52.80;;;37.03;;
22652;SDS011;11493;43.344;26.226;2023-12-14T04:17:00;47.67;;;34.55;;
22652;SDS011;11493;43.344;26.226;2023-12-14T04:19:27;51.15;;;35.78;;
22652;SDS011;11493;43.344;26.226;2023-12-14T04:21:54;49.28;;;32.88;;
22652;SDS011;11493;43.344;26.226;2023-12-14T04:24:21;47.75;;;33.83;;
22652;SDS011;11493;43.344;26.226;2023-12-14T04:26:48;37.10;;;23.90;;
22652;SDS011;11493;43.344;26.226;2023-12-14T04:29:15;42.05;;;28.17;;
22652;SDS011;11493;43.344;26.226;2023-12-14T04:31:42;44.65;;;29.80;;
22652;SDS011;11493;43.344;26.226;2023-12-14T04:34:09;45.17;;;29.02;;
22652;SDS011;11493;43.344;26.226;2023-12-14T04:36:41;33.90;;;23.75;;
22652;SDS011;11493;43.344;26.226;2023-12-14T04:39:09;39.45;;;26.90;;
22652;SDS011;11493;43.344;26.226;2023-12-14T04:41:36;23.73;;;15.70;;
22652;SDS011;11493;43.344;26.226;2023-12-14T04:44:03;27.80;;;17.83;;
22652;SDS011;11493;43.344;26.226;2023-12-14T04:46:30;28.58;;;17.90;;
22652;SDS011;11493;43.344;26.226;2023-12-14T04:48:57;26.88;;;15.30;;
22652;SDS011;11493;43.344;26.226;2023-12-14T04:51:24;20.65;;;14.07;;
22652;SDS011;11493;43.344;26.226;2023-12-14T04:53:52;24.73;;;16.60;;
22652;SDS011;11493;43.344;26.226;2023-12-14T04:56:19;36.10;;;20.70;;
22652;SDS011;11493;43.344;26.226;2023-12-14T04:58:46;35.22;;;22.35;;
22652;SDS011;11493;43.344;26.226;2023-12-14T05:01:13;37.72;;;23.90;;
22652;SDS011;11493;43.344;26.226;2023-12-14T05:03:41;38.50;;;22.35;;
22652;SDS011;11493;43.344;26.226;2023-12-14T05:06:08;32.28;;;18.58;;
22652;SDS011;11493;43.344;26.226;2023-12-14T05:08:35;35.55;;;20.90;;
22652;SDS011;11493;43.344;26.226;2023-12-14T05:11:02;35.40;;;20.02;;
22652;SDS011;11493;43.344;26.226;2023-12-14T05:13:30;30.85;;;19.05;;
22652;SDS011;11493;43.344;26.226;2023-12-14T05:15:58;38.97;;;21.08;;
22652;SDS011;11493;43.344;26.226;2023-12-14T05:18:25;32.33;;;17.77;;
22652;SDS011;11493;43.344;26.226;2023-12-14T05:20:52;25.63;;;16.63;;
22652;SDS011;11493;43.344;26.226;2023-12-14T05:23:19;33.33;;;21.90;;
22652;SDS011;11493;43.344;26.226;2023-12-14T05:25:47;25.85;;;18.02;;
22652;SDS011;11493;43.344;26.226;2023-12-14T05:28:14;30.23;;;21.70;;
22652;SDS011;11493;43.344;26.226;2023-12-14T05:30:41;46.30;;;27.65;;
22652;SDS011;11493;43.344;26.226;2023-12-14T05:33:09;84.20;;;45.40;;
22652;SDS011;11493;43.344;26.226;2023-12-14T05:35:38;74.88;;;39.35;;
22652;SDS011;11493;43.344;26.226;2023-12-14T05:38:06;66.32;;;39.33;;
22652;SDS011;11493;43.344;26.226;2023-12-14T05:40:33;61.90;;;32.85;;
22652;SDS011;11493;43.344;26.226;2023-12-14T05:43:00;51.00;;;31.10;;
22652;SDS011;11493;43.344;26.226;2023-12-14T05:45:27;45.47;;;27.17;;
22652;SDS011;11493;43.344;26.226;2023-12-14T05:47:55;56.45;;;34.67;;
22652;SDS011;11493;43.344;26.226;2023-12-14T05:50:22;105.50;;;57.55;;
22652;SDS011;11493;43.344;26.226;2023-12-14T05:52:49;131.48;;;76.90;;
22652;SDS011;11493;43.344;26.226;2023-12-14T05:55:17;71.40;;;42.22;;
22652;SDS011;11493;43.344;26.226;2023-12-14T05:57:48;89.78;;;42.42;;
22652;SDS011;11493;43.344;26.226;2023-12-14T06:00:17;79.25;;;44.72;;
22652;SDS011;11493;43.344;26.226;2023-12-14T06:02:45;90.93;;;47.60;;
22652;SDS011;11493;43.344;26.226;2023-12-14T06:05:12;86.13;;;46.78;;
22652;SDS011;11493;43.344;26.226;2023-12-14T06:07:40;87.03;;;46.55;;
22652;SDS011;11493;43.344;26.226;2023-12-14T06:10:07;88.40;;;47.83;;
22652;SDS011;11493;43.344;26.226;2023-12-14T06:12:35;94.85;;;51.13;;
22652;SDS011;11493;43.344;26.226;2023-12-14T06:15:03;148.85;;;69.88;;
22652;SDS011;11493;43.344;26.226;2023-12-14T06:17:31;129.05;;;65.20;;
22652;SDS011;11493;43.344;26.226;2023-12-14T06:20:00;159.82;;;87.00;;
22652;SDS011;11493;43.344;26.226;2023-12-14T06:22:27;153.73;;;86.95;;
22652;SDS011;11493;43.344;26.226;2023-12-14T06:24:55;149.25;;;83.80;;
22652;SDS011;11493;43.344;26.226;2023-12-14T06:27:22;141.30;;;77.32;;
22652;SDS011;11493;43.344;26.226;2023-12-14T06:29:53;140.50;;;77.72;;
22652;SDS011;11493;43.344;26.226;2023-12-14T06:32:23;154.32;;;89.00;;
22652;SDS011;11493;43.344;26.226;2023-12-14T06:34:50;159.88;;;86.25;;
22652;SDS011;11493;43.344;26.226;2023-12-14T06:37:17;136.15;;;78.15;;
22652;SDS011;11493;43.344;26.226;2023-12-14T06:39:44;136.75;;;76.45;;
22652;SDS011;11493;43.344;26.226;2023-12-14T06:42:11;136.23;;;77.00;;
22652;SDS011;11493;43.344;26.226;2023-12-14T06:44:39;121.18;;;68.72;;
22652;SDS011;11493;43.344;26.226;2023-12-14T06:47:05;118.45;;;69.38;;
22652;SDS011;11493;43.344;26.226;2023-12-14T06:49:33;121.72;;;71.22;;
22652;SDS011;11493;43.344;26.226;2023-12-14T06:52:00;125.85;;;70.53;;
22652;SDS011;11493;43.344;26.226;2023-12-14T06:54:27;142.65;;;77.85;;
22652;SDS011;11493;43.344;26.226;2023-12-14T06:56:54;123.63;;;73.30;;
22652;SDS011;11493;43.344;26.226;2023-12-14T06:59:21;126.00;;;71.65;;
22652;SDS011;11493;43.344;26.226;2023-12-14T07:01:48;92.32;;;54.75;;
22652;SDS011;11493;43.344;26.226;2023-12-14T07:04:16;113.78;;;66.38;;
22652;SDS011;11493;43.344;26.226;2023-12-14T07:06:43;104.60;;;60.80;;
22652;SDS011;11493;43.344;26.226;2023-12-14T07:09:17;76.28;;;44.75;;
22652;SDS011;11493;43.344;26.226;2023-12-14T07:11:45;70.85;;;40.35;;
22652;SDS011;11493;43.344;26.226;2023-12-14T07:14:12;74.63;;;40.72;;
22652;SDS011;11493;43.344;26.226;2023-12-14T07:16:42;69.68;;;40.40;;
22652;SDS011;11493;43.344;26.226;2023-12-14T07:19:09;66.65;;;41.40;;
22652;SDS011;11493;43.344;26.226;2023-12-14T07:21:38;70.00;;;40.10;;
22652;SDS011;11493;43.344;26.226;2023-12-14T07:24:05;49.03;;;30.80;;
22652;SDS011;11493;43.344;26.226;2023-12-14T07:26:32;78.60;;;41.13;;
22652;SDS011;11493;43.344;26.226;2023-12-14T07:28:59;107.53;;;45.50;;
22652;SDS011;11493;43.344;26.226;2023-12-14T07:31:26;76.70;;;35.92;;
22652;SDS011;11493;43.344;26.226;2023-12-14T07:33:55;74.43;;;35.60;;
22652;SDS011;11493;43.344;26.226;2023-12-14T07:36:23;86.30;;;34.97;;
22652;SDS011;11493;43.344;26.226;2023-12-14T07:38:50;80.35;;;38.80;;
22652;SDS011;11493;43.344;26.226;2023-12-14T07:41:21;59.53;;;31.58;;
22652;SDS011;11493;43.344;26.226;2023-12-14T07:43:53;60.90;;;25.20;;
22652;SDS011;11493;43.344;26.226;2023-12-14T07:46:20;56.35;;;26.63;;
22652;SDS011;11493;43.344;26.226;2023-12-14T07:48:48;86.00;;;40.40;;
22652;SDS011;11493;43.344;26.226;2023-12-14T07:51:16;66.68;;;31.55;;
22652;SDS011;11493;43.344;26.226;2023-12-14T07:53:43;41.38;;;23.48;;
22652;SDS011;11493;43.344;26.226;2023-12-14T07:56:11;39.20;;;22.23;;
22652;SDS011;11493;43.344;26.226;2023-12-14T07:58:38;38.47;;;20.60;;
22652;SDS011;11493;43.344;26.226;2023-12-14T08:01:05;26.50;;;17.05;;
22652;SDS011;11493;43.344;26.226;2023-12-14T08:03:32;36.90;;;23.98;;
22652;SDS011;11493;43.344;26.226;2023-12-14T08:05:59;36.13;;;21.23;;
22652;SDS011;11493;43.344;26.226;2023-12-14T08:08:26;26.80;;;17.65;;
22652;SDS011;11493;43.344;26.226;2023-12-14T08:10:53;45.72;;;28.42;;
22652;SDS011;11493;43.344;26.226;2023-12-14T08:13:20;32.70;;;22.35;;
22652;SDS011;11493;43.344;26.226;2023-12-14T08:15:47;31.08;;;20.02;;
22652;SDS011;11493;43.344;26.226;2023-12-14T08:18:14;31.88;;;18.85;;
22652;SDS011;11493;43.344;26.226;2023-12-14T08:20:42;60.25;;;33.00;;
22652;SDS011;11493;43.344;26.226;2023-12-14T08:23:10;50.05;;;27.10;;
22652;SDS011;11493;43.344;26.226;2023-12-14T08:25:37;58.50;;;31.65;;
22652;SDS011;11493;43.344;26.226;2023-12-14T08:28:04;52.20;;;29.55;;
22652;SDS011;11493;43.344;26.226;2023-12-14T08:30:31;41.58;;;24.90;;
22652;SDS011;11493;43.344;26.226;2023-12-14T08:32:58;47.38;;;26.33;;
22652;SDS011;11493;43.344;26.226;2023-12-14T08:35:26;60.47;;;29.42;;
22652;SDS011;11493;43.344;26.226;2023-12-14T08:37:53;53.92;;;29.70;;
22652;SDS011;11493;43.344;26.226;2023-12-14T08:40:20;59.72;;;31.25;;
22652;SDS011;11493;43.344;26.226;2023-12-14T08:42:47;79.38;;;40.13;;
22652;SDS011;11493;43.344;26.226;2023-12-14T08:45:15;74.13;;;41.05;;
22652;SDS011;11493;43.344;26.226;2023-12-14T08:47:42;50.72;;;32.90;;
22652;SDS011;11493;43.344;26.226;2023-12-14T08:50:10;42.05;;;30.00;;
22652;SDS011;11493;43.344;26.226;2023-12-14T08:52:37;26.35;;;19.80;;
22652;SDS011;11493;43.344;26.226;2023-12-14T08:55:04;48.80;;;29.23;;
22652;SDS011;11493;43.344;26.226;2023-12-14T08:57:32;23.95;;;16.52;;
22652;SDS011;11493;43.344;26.226;2023-12-14T08:59:59;31.50;;;18.92;;
22652;SDS011;11493;43.344;26.226;2023-12-14T09:02:26;45.33;;;24.65;;
22652;SDS011;11493;43.344;26.226;2023-12-14T09:04:54;42.75;;;25.73;;
22652;SDS011;11493;43.344;26.226;2023-12-14T09:07:21;76.80;;;34.95;;
22652;SDS011;11493;43.344;26.226;2023-12-14T09:09:48;48.50;;;27.60;;
22652;SDS011;11493;43.344;26.226;2023-12-14T09:12:15;34.30;;;20.00;;
22652;SDS011;11493;43.344;26.226;2023-12-14T09:14:42;25.40;;;18.17;;
22652;SDS011;11493;43.344;26.226;2023-12-14T09:17:10;39.63;;;20.17;;
22652;SDS011;11493;43.344;26.226;2023-12-14T09:19:37;32.20;;;16.85;;
22652;SDS011;11493;43.344;26.226;2023-12-14T09:22:04;20.77;;;12.48;;
22652;SDS011;11493;43.344;26.226;2023-12-14T09:24:31;24.98;;;13.70;;
22652;SDS011;11493;43.344;26.226;2023-12-14T09:26:59;18.88;;;12.88;;
22652;SDS011;11493;43.344;26.226;2023-12-14T09:29:26;22.15;;;13.23;;
22652;SDS011;11493;43.344;26.226;2023-12-14T09:31:54;20.42;;;13.45;;
22652;SDS011;11493;43.344;26.226;2023-12-14T09:34:21;23.63;;;13.50;;
22652;SDS011;11493;43.344;26.226;2023-12-14T09:36:48;17.23;;;12.13;;
22652;SDS011;11493;43.344;26.226;2023-12-14T09:39:15;25.20;;;15.32;;
22652;SDS011;11493;43.344;26.226;2023-12-14T09:41:42;27.77;;;14.77;;
22652;SDS011;11493;43.344;26.226;2023-12-14T09:44:09;23.50;;;13.13;;
22652;SDS011;11493;43.344;26.226;2023-12-14T09:46:37;32.40;;;16.55;;
22652;SDS011;11493;43.344;26.226;2023-12-14T09:49:05;19.27;;;12.77;;
22652;SDS011;11493;43.344;26.226;2023-12-14T09:51:35;17.83;;;11.05;;
22652;SDS011;11493;43.344;26.226;2023-12-14T09:54:02;22.55;;;14.70;;
22652;SDS011;11493;43.344;26.226;2023-12-14T09:56:30;30.10;;;16.75;;
22652;SDS011;11493;43.344;26.226;2023-12-14T09:58:57;19.95;;;13.57;;
22652;SDS011;11493;43.344;26.226;2023-12-14T10:01:25;16.52;;;11.57;;
22652;SDS011;11493;43.344;26.226;2023-12-14T10:04:13;19.13;;;13.13;;
22652;SDS011;11493;43.344;26.226;2023-12-14T10:06:41;21.98;;;15.65;;
22652;SDS011;11493;43.344;26.226;2023-12-14T10:09:10;18.15;;;12.32;;
22652;SDS011;11493;43.344;26.226;2023-12-14T10:11:40;12.52;;;9.68;;
22652;SDS011;11493;43.344;26.226;2023-12-14T10:14:17;16.70;;;10.52;;
22652;SDS011;11493;43.344;26.226;2023-12-14T10:16:45;11.88;;;9.38;;
22652;SDS011;11493;43.344;26.226;2023-12-14T10:19:16;11.57;;;8.93;;
22652;SDS011;11493;43.344;26.226;2023-12-14T10:21:44;11.30;;;9.25;;
22652;SDS011;11493;43.344;26.226;2023-12-14T10:24:13;12.32;;;9.55;;
22652;SDS011;11493;43.344;26.226;2023-12-14T10:26:45;13.70;;;10.10;;
22652;SDS011;11493;43.344;26.226;2023-12-14T10:29:13;17.55;;;11.98;;
22652;SDS011;11493;43.344;26.226;2023-12-14T10:31:42;13.95;;;10.57;;
22652;SDS011;11493;43.344;26.226;2023-12-14T10:34:10;15.27;;;10.85;;
22652;SDS011;11493;43.344;26.226;2023-12-14T10:36:40;14.15;;;10.55;;
22652;SDS011;11493;43.344;26.226;2023-12-14T10:39:10;16.65;;;11.98;;
22652;SDS011;11493;43.344;26.226;2023-12-14T10:41:43;16.98;;;13.00;;
22652;SDS011;11493;43.344;26.226;2023-12-14T10:44:20;15.07;;;11.30;;
22652;SDS011;11493;43.344;26.226;2023-12-14T10:47:12;21.13;;;11.25;;
22652;SDS011;11493;43.344;26.226;2023-12-14T10:49:42;14.55;;;11.43;;
22652;SDS011;11493;43.344;26.226;2023-12-14T10:52:16;13.77;;;12.25;;
22652;SDS011;11493;43.344;26.226;2023-12-14T10:54:45;16.38;;;12.18;;
22652;SDS011;11493;43.344;26.226;2023-12-14T10:57:13;15.77;;;12.23;;
22652;SDS011;11493;43.344;26.226;2023-12-14T10:59:41;18.30;;;13.35;;
22652;SDS011;11493;43.344;26.226;2023-12-14T11:02:09;16.90;;;13.43;;
22652;SDS011;11493;43.344;26.226;2023-12-14T11:05:00;18.17;;;15.13;;
22652;SDS011;11493;43.344;26.226;2023-12-14T11:07:50;21.55;;;15.10;;
22652;SDS011;11493;43.344;26.226;2023-12-14T11:10:22;20.97;;;14.30;;
22652;SDS011;11493;43.344;26.226;2023-12-14T11:12:57;19.40;;;14.20;;
22652;SDS011;11493;43.344;26.226;2023-12-14T11:15:37;21.15;;;15.10;;
22652;SDS011;11493;43.344;26.226;2023-12-14T11:23:37;21.35;;;15.48;;
22652;SDS011;11493;43.344;26.226;2023-12-14T11:26:06;22.52;;;14.95;;
22652;SDS011;11493;43.344;26.226;2023-12-14T11:28:40;20.58;;;15.50;;
22652;SDS011;11493;43.344;26.226;2023-12-14T11:31:10;24.92;;;17.15;;
22652;SDS011;11493;43.344;26.226;2023-12-14T11:33:39;26.90;;;19.25;;
22652;SDS011;11493;43.344;26.226;2023-12-14T11:36:13;27.80;;;18.92;;
22652;SDS011;11493;43.344;26.226;2023-12-14T11:41:10;22.98;;;14.40;;
22652;SDS011;11493;43.344;26.226;2023-12-14T11:43:41;25.17;;;16.30;;
22652;SDS011;11493;43.344;26.226;2023-12-14T11:46:10;25.55;;;17.05;;
22652;SDS011;11493;43.344;26.226;2023-12-14T11:48:38;28.13;;;16.80;;
22652;SDS011;11493;43.344;26.226;2023-12-14T11:51:05;28.10;;;16.48;;
22652;SDS011;11493;43.344;26.226;2023-12-14T11:53:35;27.88;;;17.48;;
22652;SDS011;11493;43.344;26.226;2023-12-14T11:56:06;25.63;;;16.15;;
22652;SDS011;11493;43.344;26.226;2023-12-14T11:58:33;27.60;;;17.50;;
22652;SDS011;11493;43.344;26.226;2023-12-14T12:04:07;27.48;;;16.90;;
22652;SDS011;11493;43.344;26.226;2023-12-14T12:06:37;21.40;;;15.23;;
22652;SDS011;11493;43.344;26.226;2023-12-14T12:09:04;19.65;;;15.02;;
22652;SDS011;11493;43.344;26.226;2023-12-14T12:11:35;26.92;;;17.30;;
22652;SDS011;11493;43.344;26.226;2023-12-14T12:14:03;25.52;;;16.83;;
22652;SDS011;11493;43.344;26.226;2023-12-14T12:16:32;22.92;;;15.95;;
22652;SDS011;11493;43.344;26.226;2023-12-14T12:18:59;22.73;;;14.45;;
22652;SDS011;11493;43.344;26.226;2023-12-14T12:21:26;22.73;;;15.20;;
22652;SDS011;11493;43.344;26.226;2023-12-14T12:23:53;22.70;;;15.35;;
22652;SDS011;11493;43.344;26.226;2023-12-14T12:26:20;26.70;;;15.50;;
22652;SDS011;11493;43.344;26.226;2023-12-14T12:28:47;26.20;;;16.65;;
22652;SDS011;11493;43.344;26.226;2023-12-14T12:31:16;21.35;;;14.45;;
22652;SDS011;11493;43.344;26.226;2023-12-14T12:33:43;20.30;;;14.68;;
22652;SDS011;11493;43.344;26.226;2023-12-14T12:38:41;23.92;;;15.57;;
22652;SDS011;11493;43.344;26.226;2023-12-14T12:41:08;24.77;;;16.65;;
22652;SDS011;11493;43.344;26.226;2023-12-14T12:43:35;21.35;;;14.65;;
22652;SDS011;11493;43.344;26.226;2023-12-14T12:46:03;19.60;;;12.90;;
22652;SDS011;11493;43.344;26.226;2023-12-14T12:48:30;19.15;;;13.70;;
22652;SDS011;11493;43.344;26.226;2023-12-14T12:50:58;26.10;;;15.48;;
22652;SDS011;11493;43.344;26.226;2023-12-14T12:53:24;23.85;;;16.20;;
22652;SDS011;11493;43.344;26.226;2023-12-14T12:55:53;29.13;;;17.77;;
22652;SDS011;11493;43.344;26.226;2023-12-14T12:58:21;26.58;;;15.68;;
22652;SDS011;11493;43.344;26.226;2023-12-14T13:00:48;19.08;;;13.73;;
22652;SDS011;11493;43.344;26.226;2023-12-14T13:03:15;21.70;;;14.40;;
22652;SDS011;11493;43.344;26.226;2023-12-14T13:05:42;24.88;;;15.73;;
22652;SDS011;11493;43.344;26.226;2023-12-14T13:08:10;32.05;;;20.42;;
22652;SDS011;11493;43.344;26.226;2023-12-14T13:10:37;35.92;;;22.92;;
22652;SDS011;11493;43.344;26.226;2023-12-14T13:13:05;23.08;;;15.52;;
22652;SDS011;11493;43.344;26.226;2023-12-14T13:15:37;21.27;;;13.63;;
22652;SDS011;11493;43.344;26.226;2023-12-14T13:18:05;21.60;;;14.10;;
22652;SDS011;11493;43.344;26.226;2023-12-14T13:20:33;25.38;;;14.60;;
22652;SDS011;11493;43.344;26.226;2023-12-14T13:23:01;25.83;;;15.30;;
22652;SDS011;11493;43.344;26.226;2023-12-14T13:25:28;24.20;;;15.13;;
22652;SDS011;11493;43.344;26.226;2023-12-14T13:27:55;26.17;;;14.68;;
22652;SDS011;11493;43.344;26.226;2023-12-14T13:30:23;21.02;;;14.00;;
22652;SDS011;11493;43.344;26.226;2023-12-14T13:32:50;26.05;;;16.00;;
22652;SDS011;11493;43.344;26.226;2023-12-14T13:35:20;27.52;;;16.25;;
22652;SDS011;11493;43.344;26.226;2023-12-14T13:37:49;30.90;;;15.00;;
22652;SDS011;11493;43.344;26.226;2023-12-14T13:40:16;32.45;;;14.93;;
22652;SDS011;11493;43.344;26.226;2023-12-14T13:42:44;29.38;;;16.95;;
22652;SDS011;11493;43.344;26.226;2023-12-14T13:45:25;28.38;;;16.85;;
22652;SDS011;11493;43.344;26.226;2023-12-14T13:47:54;29.27;;;18.75;;
22652;SDS011;11493;43.344;26.226;2023-12-14T13:50:21;29.67;;;18.48;;
22652;SDS011;11493;43.344;26.226;2023-12-14T13:52:49;38.88;;;24.67;;
22652;SDS011;11493;43.344;26.226;2023-12-14T13:55:16;33.65;;;21.50;;
22652;SDS011;11493;43.344;26.226;2023-12-14T13:57:43;31.55;;;21.00;;
22652;SDS011;11493;43.344;26.226;2023-12-14T14:00:11;42.85;;;27.63;;
22652;SDS011;11493;43.344;26.226;2023-12-14T14:02:38;36.65;;;22.45;;
22652;SDS011;11493;43.344;26.226;2023-12-14T14:05:05;35.17;;;22.20;;
22652;SDS011;11493;43.344;26.226;2023-12-14T14:07:32;40.92;;;25.00;;
22652;SDS011;11493;43.344;26.226;2023-12-14T14:10:00;42.75;;;26.15;;
22652;SDS011;11493;43.344;26.226;2023-12-14T14:12:27;34.70;;;22.88;;
22652;SDS011;11493;43.344;26.226;2023-12-14T14:14:54;41.95;;;23.35;;
22652;SDS011;11493;43.344;26.226;2023-12-14T14:17:21;38.22;;;23.02;;
22652;SDS011;11493;43.344;26.226;2023-12-14T14:19:48;44.95;;;24.42;;
22652;SDS011;11493;43.344;26.226;2023-12-14T14:22:16;45.45;;;23.77;;
22652;SDS011;11493;43.344;26.226;2023-12-14T14:24:43;63.85;;;24.25;;
22652;SDS011;11493;43.344;26.226;2023-12-14T14:27:10;40.42;;;21.25;;